createdAt,value
2022-10-13T00:02:29.035Z,78.95
2022-10-13T00:05:51.084Z,78.62
2022-10-13T00:09:14.952Z,78.73
2022-10-13T00:12:40.420Z,78.76
2022-10-13T00:16:03.573Z,78.22
2022-10-13T00:19:27.835Z,78.64
2022-10-13T00:22:51.831Z,78.77
2022-10-13T00:26:15.024Z,78.87
2022-10-13T00:29:39.069Z,78.61
2022-10-13T00:33:00.608Z,78.89
2022-10-13T00:36:23.192Z,79.13
2022-10-13T00:39:44.702Z,79.19
2022-10-13T00:43:16.321Z,78.79
2022-10-13T00:46:40.526Z,78.53
2022-10-13T00:50:03.216Z,78.41
2022-10-13T00:53:33.078Z,78.95
2022-10-13T00:56:57.197Z,79.54
2022-10-13T01:00:18.792Z,83.62
2022-10-13T01:03:40.390Z,82.58
2022-10-13T01:07:02.715Z,82.50
2022-10-13T01:10:39.947Z,79.27
2022-10-13T01:14:01.385Z,79.82
2022-10-13T01:17:47.477Z,79.73
2022-10-13T01:21:26.970Z,74.11
2022-10-13T01:24:57.543Z,74.61
2022-10-13T01:28:37.318Z,75.81
2022-10-13T01:32:12.235Z,75.61
2022-10-13T01:35:41.588Z,76.01
2022-10-13T01:39:03.094Z,77.08
2022-10-13T01:42:35.409Z,78.01
2022-10-13T01:46:15.688Z,78.63
2022-10-13T01:49:40.745Z,78.90
2022-10-13T01:53:05.212Z,79.11
2022-10-13T01:56:29.195Z,78.87
2022-10-13T01:59:52.971Z,79.66
2022-10-13T02:03:35.483Z,78.87
2022-10-13T02:07:23.072Z,79.98
2022-10-13T02:10:52.209Z,78.95
2022-10-13T02:14:21.368Z,79.61
2022-10-13T02:17:42.921Z,80.89
2022-10-13T02:21:07.231Z,81.08
2022-10-13T02:24:31.257Z,81.11
2022-10-13T02:27:53.438Z,81.29
2022-10-13T02:31:16.288Z,81.80
2022-10-13T02:34:37.831Z,81.64
2022-10-13T02:37:59.761Z,81.37
2022-10-13T02:41:21.279Z,81.52
2022-10-13T02:44:42.792Z,81.77
2022-10-13T02:48:07.794Z,81.18
2022-10-13T02:51:34.144Z,80.89
2022-10-13T02:54:59.223Z,80.90
2022-10-13T02:58:20.709Z,80.91
2022-10-13T03:01:44.340Z,80.80
2022-10-13T03:05:09.077Z,80.70
2022-10-13T03:08:38.350Z,80.80
2022-10-13T03:12:02.573Z,80.89
2022-10-13T03:15:26.739Z,84.75
2022-10-13T03:18:48.277Z,85.42
2022-10-13T03:22:09.912Z,83.83
2022-10-13T03:25:34.136Z,81.80
2022-10-13T03:28:55.731Z,82.03
2022-10-13T03:32:18.461Z,80.19
2022-10-13T03:35:42.516Z,75.84
2022-10-13T03:39:04.091Z,75.76
2022-10-13T03:42:25.656Z,76.05
2022-10-13T03:46:00.367Z,76.55
2022-10-13T03:49:21.945Z,77.12
2022-10-13T03:52:43.459Z,78.07
2022-10-13T03:56:06.816Z,78.91
2022-10-13T03:59:34.183Z,79.43
2022-10-13T04:03:00.731Z,79.77
2022-10-13T04:06:23.202Z,79.63
2022-10-13T04:09:44.723Z,79.17
2022-10-13T04:13:08.713Z,79.83
2022-10-13T04:16:31.176Z,80.31
2022-10-13T04:19:54.976Z,80.58
2022-10-13T04:23:16.683Z,80.84
2022-10-13T04:26:38.452Z,80.81
2022-10-13T04:30:00.135Z,80.98
2022-10-13T04:33:24.204Z,81.03
2022-10-13T04:36:45.820Z,81.56
2022-10-13T04:40:07.863Z,81.65
2022-10-13T04:43:31.567Z,81.97
2022-10-13T04:46:55.573Z,81.54
2022-10-13T04:50:19.768Z,80.83
2022-10-13T04:53:41.402Z,80.69
2022-10-13T04:57:03.087Z,80.71
2022-10-13T05:00:27.165Z,80.30
2022-10-13T05:03:57.020Z,80.14
2022-10-13T05:07:18.947Z,80.12
2022-10-13T05:10:40.621Z,79.97
2022-10-13T05:14:07.334Z,79.28
2022-10-13T05:17:34.989Z,80.30
2022-10-13T05:20:57.084Z,80.61
2022-10-13T05:24:20.906Z,84.42
2022-10-13T05:27:42.557Z,85.19
2022-10-13T05:31:23.929Z,82.46
2022-10-13T05:35:07.129Z,78.76
2022-10-13T05:38:56.705Z,76.81
2022-10-13T05:42:21.356Z,77.23
2022-10-13T05:45:43.181Z,77.67
2022-10-13T05:49:04.888Z,78.31
2022-10-13T05:52:27.143Z,78.61
2022-10-13T05:55:48.740Z,79.34
2022-10-13T05:59:14.692Z,80.39
2022-10-13T06:02:57.374Z,80.96
2022-10-13T06:06:19.193Z,80.99
2022-10-13T06:09:43.973Z,81.33
2022-10-13T06:13:05.521Z,81.32
2022-10-13T06:16:27.096Z,82.06
2022-10-13T06:19:51.861Z,81.34
2022-10-13T06:23:15.458Z,82.34
2022-10-13T06:26:37.057Z,82.05
2022-10-13T06:29:58.696Z,82.12
2022-10-13T06:33:25.390Z,81.91
2022-10-13T06:36:47.299Z,81.77
2022-10-13T06:40:12.060Z,81.26
2022-10-13T06:43:40.399Z,80.53
2022-10-13T06:47:03.937Z,79.77
2022-10-13T06:50:25.524Z,79.26
2022-10-13T06:53:47.223Z,79.93
2022-10-13T06:57:08.765Z,78.92
2022-10-13T07:00:30.482Z,78.33
2022-10-13T07:03:52.153Z,78.50
2022-10-13T07:07:16.953Z,78.12
2022-10-13T07:10:39.423Z,76.88
2022-10-13T07:17:23.598Z,74.09
2022-10-13T07:20:45.279Z,72.85
2022-10-13T07:24:10.056Z,71.34
2022-10-13T07:27:33.989Z,70.88
2022-10-13T07:30:57.838Z,71.45
2022-10-13T07:34:22.102Z,69.73
2022-10-13T07:37:43.632Z,69.02
2022-10-13T07:41:07.489Z,67.96
2022-10-13T07:44:31.305Z,68.09
2022-10-13T07:47:52.856Z,67.16
2022-10-13T07:51:17.536Z,66.53
2022-10-13T07:54:41.357Z,65.46
2022-10-13T07:58:03.826Z,67.17
2022-10-13T08:01:25.556Z,62.73
2022-10-13T08:04:49.550Z,67.26
2022-10-13T08:08:15.263Z,65.12
2022-10-13T08:11:39.299Z,66.79
2022-10-13T08:15:06.426Z,64.08
2022-10-13T08:18:29.323Z,57.57
2022-10-13T08:21:59.237Z,58.87
2022-10-13T08:25:24.563Z,57.91
2022-10-13T08:29:02.930Z,61.76
2022-10-13T08:32:30.437Z,61.95
2022-10-13T08:35:52.938Z,60.40
2022-10-13T08:39:14.644Z,60.50
2022-10-13T08:42:36.189Z,60.68
2022-10-13T08:46:00.484Z,62.19
2022-10-13T08:49:24.981Z,60.75
2022-10-13T08:53:01.980Z,58.96
2022-10-13T08:56:27.876Z,60.26
2022-10-13T08:59:49.876Z,58.55
2022-10-13T09:03:25.304Z,58.72
2022-10-13T09:07:19.419Z,58.18
2022-10-13T09:10:51.895Z,57.21
2022-10-13T09:14:22.048Z,55.67
2022-10-13T09:17:43.796Z,52.20
2022-10-13T09:21:16.510Z,53.92
2022-10-13T09:24:38.047Z,56.50
2022-10-13T09:28:01.042Z,55.38
2022-10-13T09:31:28.468Z,54.28
2022-10-13T09:34:51.568Z,54.84
2022-10-13T09:38:21.828Z,54.08
2022-10-13T09:41:46.171Z,52.80
2022-10-13T09:45:16.652Z,50.68
2022-10-13T09:48:46.050Z,52.67
2022-10-13T09:52:13.702Z,52.75
2022-10-13T09:55:38.863Z,53.34
2022-10-13T09:59:46.979Z,50.88
2022-10-13T10:03:23.068Z,47.38
2022-10-13T10:06:45.939Z,47.70
2022-10-13T10:10:23.217Z,45.92
2022-10-13T10:13:44.797Z,45.85
2022-10-13T10:17:09.360Z,46.91
2022-10-13T10:20:52.490Z,48.01
2022-10-13T10:24:28.586Z,47.72
2022-10-13T10:28:19.404Z,47.00
2022-10-13T10:32:16.350Z,47.23
2022-10-13T10:35:54.601Z,47.47
2022-10-13T10:39:22.030Z,46.80
2022-10-13T10:43:01.152Z,47.26
2022-10-13T10:46:29.222Z,47.12
2022-10-13T10:49:53.303Z,47.25
2022-10-13T10:53:22.813Z,46.69
2022-10-13T10:56:53.200Z,44.68
2022-10-13T11:00:22.370Z,44.48
2022-10-13T11:04:10.589Z,42.24
2022-10-13T11:07:32.068Z,43.61
2022-10-13T11:11:37.482Z,42.33
2022-10-13T11:15:11.465Z,43.68
2022-10-13T11:18:54.887Z,44.78
2022-10-13T11:22:19.306Z,41.83
2022-10-13T11:25:48.044Z,43.97
2022-10-13T11:29:20.016Z,45.45
2022-10-13T11:32:55.390Z,47.77
2022-10-13T11:36:35.242Z,46.94
2022-10-13T11:40:18.225Z,44.89
2022-10-13T11:43:42.630Z,44.45
2022-10-13T11:47:48.996Z,45.01
2022-10-13T11:51:16.654Z,43.99
2022-10-13T11:54:58.047Z,42.07
2022-10-13T11:58:27.294Z,43.74
2022-10-13T12:01:54.235Z,43.16
2022-10-13T12:05:25.722Z,43.10
2022-10-13T12:08:52.465Z,43.35
2022-10-13T12:12:17.134Z,45.59
2022-10-13T12:15:44.255Z,43.56
2022-10-13T12:19:29.088Z,42.99
2022-10-13T12:22:51.982Z,47.79
2022-10-13T12:26:17.918Z,47.28
2022-10-13T12:29:40.898Z,43.01
2022-10-13T12:33:04.657Z,40.32
2022-10-13T12:36:30.989Z,41.98
2022-10-13T12:39:56.461Z,46.70
2022-10-13T12:43:25.214Z,43.72
2022-10-13T12:46:52.118Z,46.44
2022-10-13T12:50:31.602Z,46.96
2022-10-13T12:53:53.348Z,47.24
2022-10-13T12:57:22.663Z,48.42
2022-10-13T13:00:47.171Z,48.43
2022-10-13T13:04:38.222Z,48.17
2022-10-13T13:08:00.747Z,49.15
2022-10-13T13:11:32.785Z,47.43
2022-10-13T13:14:55.339Z,49.18
2022-10-13T13:18:41.782Z,49.82
2022-10-13T13:22:09.323Z,49.59
2022-10-13T13:25:30.941Z,50.52
2022-10-13T13:28:54.777Z,49.62
2022-10-13T13:32:20.242Z,48.07
2022-10-13T13:35:44.230Z,48.45
2022-10-13T13:39:14.994Z,49.38
2022-10-13T13:42:36.576Z,48.90
2022-10-13T13:46:00.878Z,50.37
2022-10-13T13:49:22.458Z,50.13
2022-10-13T13:52:46.337Z,50.19
2022-10-13T13:56:13.921Z,49.07
2022-10-13T13:59:35.531Z,50.25
2022-10-13T14:02:57.750Z,51.04
2022-10-13T14:06:20.280Z,50.91
2022-10-13T14:09:41.882Z,50.02
2022-10-13T14:13:03.925Z,51.29
2022-10-13T14:16:25.519Z,50.62
2022-10-13T14:19:49.585Z,50.01
2022-10-13T14:23:11.105Z,50.81
2022-10-13T14:26:32.648Z,50.66
2022-10-13T14:29:54.260Z,51.31
2022-10-13T14:33:19.408Z,50.47
2022-10-13T14:36:45.760Z,51.42
2022-10-13T14:40:07.717Z,57.79
2022-10-13T14:43:32.215Z,59.02
2022-10-13T14:46:53.859Z,52.70
2022-10-13T14:50:17.863Z,56.73
2022-10-13T14:53:41.508Z,55.31
2022-10-13T14:57:05.548Z,54.69
2022-10-13T15:00:30.674Z,54.28
2022-10-13T15:03:52.564Z,52.32
2022-10-13T15:07:14.175Z,50.98
2022-10-13T15:10:40.328Z,51.18
2022-10-13T15:14:01.960Z,52.16
2022-10-13T15:17:23.509Z,54.01
2022-10-13T15:20:47.820Z,53.44
2022-10-13T15:24:11.417Z,53.95
2022-10-13T15:27:34.289Z,55.60
2022-10-13T15:30:57.377Z,56.87
2022-10-13T15:34:18.916Z,58.24
2022-10-13T15:37:42.714Z,56.94
2022-10-13T15:41:10.527Z,57.41
2022-10-13T15:44:50.938Z,58.13
2022-10-13T15:48:18.788Z,60.30
2022-10-13T15:51:40.333Z,61.18
2022-10-13T15:55:02.234Z,61.37
2022-10-13T15:58:26.096Z,62.22
2022-10-13T16:01:47.622Z,62.89
2022-10-13T16:05:10.876Z,63.26
2022-10-13T16:08:32.617Z,64.40
2022-10-13T16:11:56.388Z,64.62
2022-10-13T16:15:18.268Z,65.47
2022-10-13T16:18:40.490Z,65.74
2022-10-13T16:22:02.052Z,66.40
2022-10-13T16:25:23.579Z,66.65
2022-10-13T16:28:46.669Z,66.96
2022-10-13T16:32:08.542Z,67.37
2022-10-13T16:35:34.944Z,68.38
2022-10-13T16:38:56.535Z,69.05
2022-10-13T16:42:20.558Z,69.66
2022-10-13T16:45:59.228Z,69.69
2022-10-13T16:49:24.124Z,69.63
2022-10-13T16:52:47.185Z,69.69
2022-10-13T16:56:09.511Z,69.25
2022-10-13T16:59:33.078Z,75.46
2022-10-13T17:02:55.040Z,74.57
2022-10-13T17:06:20.820Z,72.83
2022-10-13T17:09:42.961Z,70.41
2022-10-13T17:13:04.509Z,71.00
2022-10-13T17:16:26.999Z,71.49
2022-10-13T17:19:48.593Z,69.09
2022-10-13T17:23:12.339Z,66.51
2022-10-13T17:26:46.180Z,67.95
2022-10-13T17:30:13.486Z,68.47
2022-10-13T17:33:39.064Z,69.40
2022-10-13T17:37:05.490Z,69.51
2022-10-13T17:40:26.982Z,70.88
2022-10-13T17:43:50.741Z,71.96
2022-10-13T17:47:14.983Z,72.60
2022-10-13T17:50:37.464Z,72.44
2022-10-13T17:54:04.946Z,72.51
2022-10-13T17:57:29.422Z,72.33
2022-10-13T18:01:12.267Z,72.22
2022-10-13T18:04:37.715Z,72.38
2022-10-13T18:07:59.279Z,72.25
2022-10-13T18:11:24.713Z,72.57
2022-10-13T18:14:49.205Z,73.14
2022-10-13T18:18:12.792Z,72.94
2022-10-13T18:21:34.374Z,73.35
2022-10-13T18:25:01.229Z,73.32
2022-10-13T18:28:22.781Z,73.14
2022-10-13T18:31:44.437Z,73.60
2022-10-13T18:35:09.192Z,74.00
2022-10-13T18:38:33.014Z,74.02
2022-10-13T18:41:57.992Z,73.76
2022-10-13T18:45:19.526Z,73.42
2022-10-13T18:48:43.621Z,73.65
2022-10-13T18:52:07.930Z,74.11
2022-10-13T18:55:29.487Z,74.25
2022-10-13T18:58:58.455Z,74.52
2022-10-13T19:02:20.754Z,74.96
2022-10-13T19:05:45.663Z,74.74
2022-10-13T19:09:13.522Z,74.39
2022-10-13T19:12:35.070Z,74.66
2022-10-13T19:16:02.802Z,74.38
2022-10-13T19:19:27.295Z,74.86
2022-10-13T19:22:48.814Z,75.16
2022-10-13T19:26:23.907Z,75.27
2022-10-13T19:29:53.479Z,75.27
2022-10-13T19:33:19.832Z,75.43
2022-10-13T19:36:44.480Z,75.16
2022-10-13T19:40:07.811Z,75.14
2022-10-13T19:43:29.948Z,79.25
2022-10-13T19:46:52.607Z,80.93
2022-10-13T19:50:19.809Z,82.11
2022-10-13T19:53:42.212Z,79.88
2022-10-13T19:57:06.314Z,75.63
2022-10-13T20:00:27.907Z,74.82
2022-10-13T20:03:52.504Z,70.22
2022-10-13T20:07:16.504Z,70.48
2022-10-13T20:10:42.502Z,71.71
2022-10-13T20:14:06.615Z,72.45
2022-10-13T20:17:28.123Z,72.87
2022-10-13T20:20:49.724Z,73.63
2022-10-13T20:24:15.261Z,74.71
2022-10-13T20:27:39.496Z,75.10
2022-10-13T20:31:07.158Z,75.40
2022-10-13T20:34:28.847Z,75.82
2022-10-13T20:37:50.349Z,75.92
2022-10-13T20:41:20.033Z,76.04
2022-10-13T20:44:43.881Z,76.03
2022-10-13T20:48:10.305Z,76.69
2022-10-13T20:51:34.161Z,76.50
2022-10-13T20:54:55.744Z,76.68
2022-10-13T20:58:17.251Z,76.64
2022-10-13T21:01:43.528Z,79.97
2022-10-13T21:05:05.195Z,80.11
2022-10-13T21:08:26.751Z,78.73
2022-10-13T21:11:48.269Z,77.53
2022-10-13T21:15:10.181Z,73.51
2022-10-13T21:18:33.958Z,73.82
2022-10-13T21:21:55.496Z,74.23
2022-10-13T21:25:20.000Z,74.87
2022-10-13T21:28:41.758Z,75.16
2022-10-13T21:32:03.302Z,75.80
2022-10-13T21:35:28.083Z,76.09
2022-10-13T21:38:58.389Z,75.92
2022-10-13T21:42:21.966Z,76.04
2022-10-13T21:45:43.463Z,75.26
2022-10-13T21:49:12.796Z,75.46
2022-10-13T21:52:38.319Z,75.26
2022-10-13T21:56:08.402Z,75.58
2022-10-13T21:59:32.214Z,76.37
2022-10-13T22:02:56.310Z,76.35
2022-10-13T22:06:19.616Z,77.15
2022-10-13T22:09:41.300Z,77.00
2022-10-13T22:13:02.791Z,76.68
2022-10-13T22:16:37.049Z,75.88
2022-10-13T22:19:58.610Z,75.80
2022-10-13T22:23:20.156Z,75.99
2022-10-13T22:26:46.079Z,75.55
2022-10-13T22:30:10.820Z,76.01
2022-10-13T22:33:33.907Z,76.04
2022-10-13T22:36:55.507Z,76.38
2022-10-13T22:40:19.510Z,76.14
2022-10-13T22:43:44.977Z,76.56
2022-10-13T22:47:07.053Z,76.86
2022-10-13T22:50:31.841Z,76.47
2022-10-13T22:53:53.836Z,76.33
2022-10-13T22:57:18.728Z,76.23
2022-10-13T23:00:42.644Z,76.07
2022-10-13T23:04:04.372Z,76.01
2022-10-13T23:07:28.827Z,76.53
2022-10-13T23:10:50.408Z,76.62
2022-10-13T23:14:14.288Z,76.71
2022-10-13T23:17:35.849Z,76.64
2022-10-13T23:20:57.361Z,76.21
2022-10-13T23:24:21.257Z,76.26
2022-10-13T23:27:42.740Z,76.49
2022-10-13T23:31:12.485Z,76.74
2022-10-13T23:34:34.061Z,76.55
2022-10-13T23:37:55.634Z,76.74
2022-10-13T23:41:19.359Z,76.54
2022-10-13T23:44:43.200Z,76.59
2022-10-13T23:48:05.588Z,76.70
2022-10-13T23:51:27.526Z,76.67
2022-10-13T23:54:49.075Z,76.10
2022-10-13T23:58:11.135Z,76.35
